sensor_id;sensor_type;location;lat;lon;timestamp;pressure;altitude;pressure_sealevel;temperature;humidity
29163;BME280;20331;53.144;8.208;2022-09-23T00:04:34;101726.59;;;10.80;98.50
29163;BME280;20331;53.144;8.208;2022-09-23T00:14:55;101724.00;;;10.63;98.69
29163;BME280;20331;53.144;8.208;2022-09-23T00:25:17;101709.06;;;10.67;98.06
29163;BME280;20331;53.144;8.208;2022-09-23T00:35:38;101709.50;;;10.58;97.71
29163;BME280;20331;53.144;8.208;2022-09-23T00:46:03;101693.19;;;10.54;97.80
29163;BME280;20331;53.144;8.208;2022-09-23T00:56:27;101693.97;;;10.40;97.74
29163;BME280;20331;53.144;8.208;2022-09-23T01:06:50;101678.47;;;10.37;98.36
29163;BME280;20331;53.144;8.208;2022-09-23T01:17:25;101672.47;;;10.52;95.63
29163;BME280;20331;53.144;8.208;2022-09-23T01:38:44;101653.00;;;10.58;95.65
29163;BME280;20331;53.144;8.208;2022-09-23T01:49:21;101647.03;;;10.56;95.63
29163;BME280;20331;53.144;8.208;2022-09-23T01:59:49;101638.34;;;10.56;94.48
29163;BME280;20331;53.144;8.208;2022-09-23T02:10:17;101634.47;;;10.48;94.36
29163;BME280;20331;53.144;8.208;2022-09-23T02:20:42;101648.88;;;10.38;93.64
29163;BME280;20331;53.144;8.208;2022-09-23T02:31:08;101630.88;;;10.33;93.64
29163;BME280;20331;53.144;8.208;2022-09-23T02:51:55;101617.94;;;10.15;96.17
29163;BME280;20331;53.144;8.208;2022-09-23T03:23:51;101573.94;;;10.09;96.57
29163;BME280;20331;53.144;8.208;2022-09-23T03:34:18;101568.59;;;10.12;96.48
29163;BME280;20331;53.144;8.208;2022-09-23T03:44:43;101558.16;;;10.12;95.61
29163;BME280;20331;53.144;8.208;2022-09-23T03:55:06;101553.63;;;10.15;95.53
29163;BME280;20331;53.144;8.208;2022-09-23T04:05:28;101545.78;;;10.00;95.25
29163;BME280;20331;53.144;8.208;2022-09-23T04:15:49;101545.13;;;9.95;96.31
29163;BME280;20331;53.144;8.208;2022-09-23T04:26:12;101537.84;;;9.84;96.61
29163;BME280;20331;53.144;8.208;2022-09-23T04:36:34;101520.25;;;9.72;98.86
29163;BME280;20331;53.144;8.208;2022-09-23T04:46:56;101510.81;;;9.70;99.43
29163;BME280;20331;53.144;8.208;2022-09-23T04:57:17;101506.69;;;9.66;97.78
29163;BME280;20331;53.144;8.208;2022-09-23T05:07:39;101501.94;;;9.57;99.21
29163;BME280;20331;53.144;8.208;2022-09-23T05:18:00;101510.97;;;9.50;99.36
29163;BME280;20331;53.144;8.208;2022-09-23T05:28:22;101504.41;;;9.60;99.38
29163;BME280;20331;53.144;8.208;2022-09-23T05:38:44;101501.94;;;9.57;98.81
29163;BME280;20331;53.144;8.208;2022-09-23T05:49:05;101515.09;;;9.54;97.93
29163;BME280;20331;53.144;8.208;2022-09-23T05:59:27;101509.63;;;9.60;98.44
29163;BME280;20331;53.144;8.208;2022-09-23T06:09:49;101513.88;;;9.61;97.48
29163;BME280;20331;53.144;8.208;2022-09-23T06:20:10;101527.66;;;9.97;95.92
29163;BME280;20331;53.144;8.208;2022-09-23T06:30:32;101530.81;;;9.86;96.09
29163;BME280;20331;53.144;8.208;2022-09-23T06:40:56;101532.66;;;10.18;94.73
29163;BME280;20331;53.144;8.208;2022-09-23T06:51:18;101520.00;;;10.43;93.75
29163;BME280;20331;53.144;8.208;2022-09-23T07:01:39;101516.78;;;10.70;93.06
29163;BME280;20331;53.144;8.208;2022-09-23T07:12:02;101520.00;;;10.91;91.14
29163;BME280;20331;53.144;8.208;2022-09-23T07:22:24;101511.41;;;11.04;91.24
29163;BME280;20331;53.144;8.208;2022-09-23T07:32:46;101511.72;;;11.29;90.72
29163;BME280;20331;53.144;8.208;2022-09-23T07:43:09;101502.75;;;11.64;88.77
29163;BME280;20331;53.144;8.208;2022-09-23T07:53:31;101503.63;;;11.92;86.47
29163;BME280;20331;53.144;8.208;2022-09-23T08:03:58;101511.44;;;12.22;84.24
29163;BME280;20331;53.144;8.208;2022-09-23T08:14:20;101517.19;;;12.54;85.30
29163;BME280;20331;53.144;8.208;2022-09-23T08:24:42;101510.47;;;12.92;83.40
29163;BME280;20331;53.144;8.208;2022-09-23T08:35:04;101499.31;;;13.29;82.13
29163;BME280;20331;53.144;8.208;2022-09-23T08:45:26;101498.31;;;13.44;83.70
29163;BME280;20331;53.144;8.208;2022-09-23T08:55:50;101499.41;;;13.66;82.33
29163;BME280;20331;53.144;8.208;2022-09-23T09:06:36;101491.69;;;13.90;80.82
29163;BME280;20331;53.144;8.208;2022-09-23T09:17:35;101489.59;;;14.07;79.03
29163;BME280;20331;53.144;8.208;2022-09-23T09:27:59;101485.13;;;14.22;78.91
29163;BME280;20331;53.144;8.208;2022-09-23T09:38:20;101481.09;;;14.53;78.40
29163;BME280;20331;53.144;8.208;2022-09-23T09:48:47;101470.00;;;14.73;78.40
29163;BME280;20331;53.144;8.208;2022-09-23T09:59:26;101464.97;;;14.70;80.20
29163;BME280;20331;53.144;8.208;2022-09-23T10:09:49;101447.34;;;15.19;75.07
29163;BME280;20331;53.144;8.208;2022-09-23T10:20:13;101441.16;;;15.43;76.13
29163;BME280;20331;53.144;8.208;2022-09-23T10:30:35;101444.56;;;15.67;73.75
29163;BME280;20331;53.144;8.208;2022-09-23T10:40:59;101437.53;;;15.79;75.84
29163;BME280;20331;53.144;8.208;2022-09-23T11:13:46;101407.44;;;16.48;73.93
29163;BME280;20331;53.144;8.208;2022-09-23T11:45:45;101389.09;;;16.69;74.83
29163;BME280;20331;53.144;8.208;2022-09-23T11:56:30;101382.63;;;17.04;74.07
29163;BME280;20331;53.144;8.208;2022-09-23T12:07:09;101371.19;;;17.46;69.41
29163;BME280;20331;53.144;8.208;2022-09-23T12:28:38;101371.19;;;17.46;69.53
29163;BME280;20331;53.144;8.208;2022-09-23T12:39:06;101363.28;;;17.15;71.83
29163;BME280;20331;53.144;8.208;2022-09-23T12:59:56;101360.41;;;17.18;70.55
29163;BME280;20331;53.144;8.208;2022-09-23T13:20:49;101343.06;;;17.15;72.29
29163;BME280;20331;53.144;8.208;2022-09-23T13:31:13;101328.66;;;17.19;72.63
29163;BME280;20331;53.144;8.208;2022-09-23T13:41:36;101327.09;;;17.17;74.46
29163;BME280;20331;53.144;8.208;2022-09-23T13:51:58;101329.59;;;16.98;74.00
29163;BME280;20331;53.144;8.208;2022-09-23T14:02:20;101328.31;;;16.92;76.48
29163;BME280;20331;53.144;8.208;2022-09-23T14:12:46;101312.00;;;16.98;77.26
29163;BME280;20331;53.144;8.208;2022-09-23T14:23:11;101313.47;;;16.91;79.52
29163;BME280;20331;53.144;8.208;2022-09-23T14:33:39;101304.81;;;16.69;81.84
29163;BME280;20331;53.144;8.208;2022-09-23T14:44:01;101298.22;;;16.43;83.32
29163;BME280;20331;53.144;8.208;2022-09-23T15:15:33;101267.28;;;16.25;83.31
29163;BME280;20331;53.144;8.208;2022-09-23T15:25:55;101268.28;;;16.13;85.44
29163;BME280;20331;53.144;8.208;2022-09-23T15:36:19;101272.09;;;16.09;85.66
29163;BME280;20331;53.144;8.208;2022-09-23T15:46:46;101263.97;;;16.12;86.65
29163;BME280;20331;53.144;8.208;2022-09-23T15:57:08;101260.66;;;15.99;87.59
29163;BME280;20331;53.144;8.208;2022-09-23T16:07:30;101269.75;;;15.95;88.98
29163;BME280;20331;53.144;8.208;2022-09-23T16:17:52;101256.16;;;15.68;93.70
29163;BME280;20331;53.144;8.208;2022-09-23T16:28:13;101256.16;;;15.68;94.93
29163;BME280;20331;53.144;8.208;2022-09-23T16:38:35;101239.75;;;15.21;100.00
29163;BME280;20331;53.144;8.208;2022-09-23T16:48:57;101235.31;;;15.10;100.00
29163;BME280;20331;53.144;8.208;2022-09-23T16:59:20;101234.81;;;15.05;100.00
29163;BME280;20331;53.144;8.208;2022-09-23T17:09:41;101223.72;;;15.02;100.00
29163;BME280;20331;53.144;8.208;2022-09-23T17:20:03;101226.94;;;14.94;100.00
29163;BME280;20331;53.144;8.208;2022-09-23T17:30:25;101229.56;;;14.94;100.00
29163;BME280;20331;53.144;8.208;2022-09-23T17:40:51;101233.25;;;14.92;100.00
29163;BME280;20331;53.144;8.208;2022-09-23T17:51:15;101238.63;;;14.90;100.00
29163;BME280;20331;53.144;8.208;2022-09-23T18:01:37;101232.84;;;14.74;100.00
29163;BME280;20331;53.144;8.208;2022-09-23T18:11:59;101238.00;;;14.76;100.00
29163;BME280;20331;53.144;8.208;2022-09-23T18:22:20;101238.22;;;14.73;100.00
29163;BME280;20331;53.144;8.208;2022-09-23T18:32:42;101231.88;;;14.64;100.00
29163;BME280;20331;53.144;8.208;2022-09-23T18:43:05;101229.47;;;14.61;100.00
29163;BME280;20331;53.144;8.208;2022-09-23T18:53:26;101224.44;;;14.58;100.00
29163;BME280;20331;53.144;8.208;2022-09-23T19:03:52;101239.38;;;14.58;100.00
29163;BME280;20331;53.144;8.208;2022-09-23T19:14:14;101244.00;;;14.54;100.00
29163;BME280;20331;53.144;8.208;2022-09-23T19:24:36;101241.56;;;14.41;100.00
29163;BME280;20331;53.144;8.208;2022-09-23T19:34:57;101240.78;;;14.28;100.00
29163;BME280;20331;53.144;8.208;2022-09-23T19:45:20;101239.56;;;14.21;100.00
29163;BME280;20331;53.144;8.208;2022-09-23T19:55:42;101239.25;;;14.13;100.00
29163;BME280;20331;53.144;8.208;2022-09-23T20:06:04;101233.13;;;14.01;100.00
29163;BME280;20331;53.144;8.208;2022-09-23T20:16:28;101222.06;;;13.85;100.00
29163;BME280;20331;53.144;8.208;2022-09-23T20:26:52;101214.06;;;13.87;100.00
29163;BME280;20331;53.144;8.208;2022-09-23T20:37:29;101202.50;;;13.66;100.00
29163;BME280;20331;53.144;8.208;2022-09-23T20:47:53;101194.66;;;13.66;100.00
29163;BME280;20331;53.144;8.208;2022-09-23T20:58:16;101178.69;;;13.69;100.00
29163;BME280;20331;53.144;8.208;2022-09-23T21:08:38;101169.88;;;13.70;100.00
29163;BME280;20331;53.144;8.208;2022-09-23T21:19:00;101168.00;;;13.72;100.00
29163;BME280;20331;53.144;8.208;2022-09-23T21:29:23;101154.41;;;13.67;100.00
29163;BME280;20331;53.144;8.208;2022-09-23T21:39:44;101164.31;;;13.51;100.00
29163;BME280;20331;53.144;8.208;2022-09-23T21:50:26;101169.31;;;13.54;100.00
29163;BME280;20331;53.144;8.208;2022-09-23T22:00:50;101176.22;;;13.55;100.00
29163;BME280;20331;53.144;8.208;2022-09-23T22:11:12;101177.72;;;13.46;100.00
29163;BME280;20331;53.144;8.208;2022-09-23T22:21:53;101163.38;;;13.52;100.00
29163;BME280;20331;53.144;8.208;2022-09-23T22:32:16;101163.91;;;13.45;100.00
29163;BME280;20331;53.144;8.208;2022-09-23T22:42:56;101162.09;;;13.57;100.00
29163;BME280;20331;53.144;8.208;2022-09-23T22:53:18;101159.22;;;13.37;100.00
29163;BME280;20331;53.144;8.208;2022-09-23T23:03:39;101151.38;;;13.37;100.00
29163;BME280;20331;53.144;8.208;2022-09-23T23:14:02;101139.81;;;13.40;100.00
29163;BME280;20331;53.144;8.208;2022-09-23T23:24:23;101129.81;;;13.21;100.00
29163;BME280;20331;53.144;8.208;2022-09-23T23:34:45;101122.25;;;13.29;100.00
29163;BME280;20331;53.144;8.208;2022-09-23T23:45:06;101110.97;;;13.16;100.00
29163;BME280;20331;53.144;8.208;2022-09-23T23:55:28;101120.09;;;13.11;100.00
